sensor_id;sensor_type;location;lat;lon;timestamp;pressure;altitude;pressure_sealevel;temperature;humidity
61697;BME280;47610;52.252;20.922;2023-02-01T00:00:26;98906.70;;;2.26;100.00
61697;BME280;47610;52.252;20.922;2023-02-01T00:05:30;98896.38;;;2.30;100.00
61697;BME280;47610;52.252;20.922;2023-02-01T00:10:34;98899.52;;;2.34;100.00
61697;BME280;47610;52.252;20.922;2023-02-01T00:15:37;98902.05;;;2.38;100.00
61697;BME280;47610;52.252;20.922;2023-02-01T00:20:40;98904.02;;;2.43;100.00
61697;BME280;47610;52.252;20.922;2023-02-01T00:25:48;98902.63;;;2.44;100.00
61697;BME280;47610;52.252;20.922;2023-02-01T00:30:59;98916.29;;;2.46;100.00
61697;BME280;47610;52.252;20.922;2023-02-01T00:36:07;98911.90;;;2.47;100.00
61697;BME280;47610;52.252;20.922;2023-02-01T00:41:14;98917.45;;;2.49;100.00
61697;BME280;47610;52.252;20.922;2023-02-01T00:46:20;98925.42;;;2.53;100.00
61697;BME280;47610;52.252;20.922;2023-02-01T00:51:22;98928.21;;;2.56;100.00
61697;BME280;47610;52.252;20.922;2023-02-01T00:56:27;98927.96;;;2.58;100.00
61697;BME280;47610;52.252;20.922;2023-02-01T01:01:31;98927.46;;;2.56;100.00
61697;BME280;47610;52.252;20.922;2023-02-01T01:06:34;98933.74;;;2.48;100.00
61697;BME280;47610;52.252;20.922;2023-02-01T01:11:39;98931.91;;;2.38;100.00
61697;BME280;47610;52.252;20.922;2023-02-01T01:16:42;98929.05;;;2.29;100.00
61697;BME280;47610;52.252;20.922;2023-02-01T01:21:47;98932.27;;;2.19;100.00
61697;BME280;47610;52.252;20.922;2023-02-01T01:26:51;98941.72;;;2.08;100.00
61697;BME280;47610;52.252;20.922;2023-02-01T01:31:54;98949.45;;;2.00;100.00
61697;BME280;47610;52.252;20.922;2023-02-01T01:36:57;98960.40;;;2.03;100.00
61697;BME280;47610;52.252;20.922;2023-02-01T01:42:01;98958.20;;;2.11;100.00
61697;BME280;47610;52.252;20.922;2023-02-01T01:47:05;98959.44;;;2.09;100.00
61697;BME280;47610;52.252;20.922;2023-02-01T01:52:10;98969.01;;;2.07;100.00
61697;BME280;47610;52.252;20.922;2023-02-01T02:04:34;98978.27;;;2.20;100.00
61697;BME280;47610;52.252;20.922;2023-02-01T02:09:41;98974.33;;;2.23;100.00
61697;BME280;47610;52.252;20.922;2023-02-01T02:14:44;98967.86;;;2.26;100.00
61697;BME280;47610;52.252;20.922;2023-02-01T02:20:15;98967.70;;;2.21;100.00
61697;BME280;47610;52.252;20.922;2023-02-01T02:25:47;98970.47;;;2.15;100.00
61697;BME280;47610;52.252;20.922;2023-02-01T02:31:11;98977.35;;;2.11;100.00
61697;BME280;47610;52.252;20.922;2023-02-01T02:36:28;98982.83;;;2.10;100.00
61697;BME280;47610;52.252;20.922;2023-02-01T02:41:40;98970.80;;;2.11;100.00
61697;BME280;47610;52.252;20.922;2023-02-01T02:46:49;98981.93;;;2.12;100.00
61697;BME280;47610;52.252;20.922;2023-02-01T02:51:56;98986.72;;;2.13;100.00
61697;BME280;47610;52.252;20.922;2023-02-01T02:57:07;99004.27;;;2.12;100.00
61697;BME280;47610;52.252;20.922;2023-02-01T03:02:14;99003.72;;;2.13;100.00
61697;BME280;47610;52.252;20.922;2023-02-01T03:13:06;99002.63;;;2.17;100.00
61697;BME280;47610;52.252;20.922;2023-02-01T03:18:16;99000.76;;;2.22;100.00
61697;BME280;47610;52.252;20.922;2023-02-01T03:23:27;99007.45;;;2.22;100.00
61697;BME280;47610;52.252;20.922;2023-02-01T03:28:35;99022.37;;;2.20;100.00
61697;BME280;47610;52.252;20.922;2023-02-01T03:33:41;99018.05;;;2.23;100.00
61697;BME280;47610;52.252;20.922;2023-02-01T03:38:55;99014.99;;;2.22;100.00
61697;BME280;47610;52.252;20.922;2023-02-01T03:44:06;99011.70;;;2.13;100.00
61697;BME280;47610;52.252;20.922;2023-02-01T03:49:20;99016.25;;;1.99;100.00
61697;BME280;47610;52.252;20.922;2023-02-01T03:54:29;99020.52;;;1.97;100.00
61697;BME280;47610;52.252;20.922;2023-02-01T03:59:34;99016.64;;;2.00;100.00
61697;BME280;47610;52.252;20.922;2023-02-01T04:04:41;99017.65;;;2.03;100.00
61697;BME280;47610;52.252;20.922;2023-02-01T04:09:45;99023.69;;;2.08;100.00
61697;BME280;47610;52.252;20.922;2023-02-01T04:20:14;99023.77;;;2.18;100.00
61697;BME280;47610;52.252;20.922;2023-02-01T04:25:19;99029.22;;;2.17;100.00
61697;BME280;47610;52.252;20.922;2023-02-01T04:30:23;99025.88;;;2.20;100.00
61697;BME280;47610;52.252;20.922;2023-02-01T04:35:30;99022.06;;;2.16;100.00
61697;BME280;47610;52.252;20.922;2023-02-01T04:40:33;99034.67;;;2.14;100.00
61697;BME280;47610;52.252;20.922;2023-02-01T04:45:36;99041.05;;;2.16;100.00
61697;BME280;47610;52.252;20.922;2023-02-01T04:50:40;99046.86;;;2.21;100.00
61697;BME280;47610;52.252;20.922;2023-02-01T04:55:47;99051.48;;;2.26;100.00
61697;BME280;47610;52.252;20.922;2023-02-01T05:00:52;99055.91;;;2.30;100.00
61697;BME280;47610;52.252;20.922;2023-02-01T05:05:55;99066.64;;;2.30;100.00
61697;BME280;47610;52.252;20.922;2023-02-01T05:10:59;99062.13;;;2.31;100.00
61697;BME280;47610;52.252;20.922;2023-02-01T05:16:06;99060.78;;;2.32;100.00
61697;BME280;47610;52.252;20.922;2023-02-01T05:21:10;99056.64;;;2.30;100.00
61697;BME280;47610;52.252;20.922;2023-02-01T05:26:15;99062.23;;;2.31;100.00
61697;BME280;47610;52.252;20.922;2023-02-01T05:31:20;99056.48;;;2.30;100.00
61697;BME280;47610;52.252;20.922;2023-02-01T05:36:27;99050.23;;;2.30;100.00
61697;BME280;47610;52.252;20.922;2023-02-01T05:41:31;99050.09;;;2.29;100.00
61697;BME280;47610;52.252;20.922;2023-02-01T05:46:36;99047.31;;;2.28;100.00
61697;BME280;47610;52.252;20.922;2023-02-01T05:51:40;99050.69;;;2.22;100.00
61697;BME280;47610;52.252;20.922;2023-02-01T05:56:44;99050.19;;;2.23;100.00
61697;BME280;47610;52.252;20.922;2023-02-01T06:01:47;99047.27;;;2.27;100.00
61697;BME280;47610;52.252;20.922;2023-02-01T06:06:51;99043.61;;;2.31;100.00
61697;BME280;47610;52.252;20.922;2023-02-01T06:11:57;99046.45;;;2.32;100.00
61697;BME280;47610;52.252;20.922;2023-02-01T06:17:00;99044.85;;;2.30;100.00
61697;BME280;47610;52.252;20.922;2023-02-01T06:22:05;99033.02;;;2.30;100.00
61697;BME280;47610;52.252;20.922;2023-02-01T06:27:08;99031.92;;;2.35;100.00
61697;BME280;47610;52.252;20.922;2023-02-01T06:39:59;99027.21;;;2.45;100.00
61697;BME280;47610;52.252;20.922;2023-02-01T06:45:10;99016.56;;;2.46;100.00
61697;BME280;47610;52.252;20.922;2023-02-01T06:50:16;99027.45;;;2.53;100.00
61697;BME280;47610;52.252;20.922;2023-02-01T06:55:20;99023.63;;;2.57;100.00
61697;BME280;47610;52.252;20.922;2023-02-01T07:00:26;99033.52;;;2.57;100.00
61697;BME280;47610;52.252;20.922;2023-02-01T07:05:31;99040.71;;;2.59;100.00
61697;BME280;47610;52.252;20.922;2023-02-01T07:10:36;99039.09;;;2.60;100.00
61697;BME280;47610;52.252;20.922;2023-02-01T07:15:42;99040.55;;;2.59;100.00
61697;BME280;47610;52.252;20.922;2023-02-01T07:20:52;99033.50;;;2.60;100.00
61697;BME280;47610;52.252;20.922;2023-02-01T07:26:05;99032.79;;;2.61;100.00
61697;BME280;47610;52.252;20.922;2023-02-01T07:31:15;99031.60;;;2.60;100.00
61697;BME280;47610;52.252;20.922;2023-02-01T07:36:20;99035.14;;;2.62;100.00
61697;BME280;47610;52.252;20.922;2023-02-01T07:41:25;99038.27;;;2.76;100.00
61697;BME280;47610;52.252;20.922;2023-02-01T07:46:29;99044.46;;;2.81;100.00
61697;BME280;47610;52.252;20.922;2023-02-01T07:51:32;99048.59;;;2.81;100.00
61697;BME280;47610;52.252;20.922;2023-02-01T07:56:37;99043.23;;;2.84;100.00
61697;BME280;47610;52.252;20.922;2023-02-01T08:01:38;99039.27;;;2.86;100.00
61697;BME280;47610;52.252;20.922;2023-02-01T08:06:43;99034.52;;;2.88;100.00
61697;BME280;47610;52.252;20.922;2023-02-01T08:11:47;99028.98;;;2.90;100.00
61697;BME280;47610;52.252;20.922;2023-02-01T08:16:50;99029.89;;;2.92;100.00
61697;BME280;47610;52.252;20.922;2023-02-01T08:21:54;99037.02;;;2.94;100.00
61697;BME280;47610;52.252;20.922;2023-02-01T08:26:57;99033.61;;;2.95;100.00
61697;BME280;47610;52.252;20.922;2023-02-01T08:32:00;99032.10;;;2.98;100.00
61697;BME280;47610;52.252;20.922;2023-02-01T08:37:05;99023.75;;;3.02;100.00
61697;BME280;47610;52.252;20.922;2023-02-01T08:42:08;99035.19;;;3.08;100.00
61697;BME280;47610;52.252;20.922;2023-02-01T08:47:11;99031.91;;;3.14;100.00
61697;BME280;47610;52.252;20.922;2023-02-01T08:59:49;99037.98;;;3.25;100.00
61697;BME280;47610;52.252;20.922;2023-02-01T09:04:53;99040.45;;;3.21;100.00
61697;BME280;47610;52.252;20.922;2023-02-01T09:09:59;99040.67;;;3.21;100.00
61697;BME280;47610;52.252;20.922;2023-02-01T09:15:09;99036.65;;;3.22;100.00
61697;BME280;47610;52.252;20.922;2023-02-01T09:20:18;99035.39;;;3.20;100.00
61697;BME280;47610;52.252;20.922;2023-02-01T09:25:25;99037.63;;;3.20;100.00
61697;BME280;47610;52.252;20.922;2023-02-01T09:30:29;99033.79;;;3.18;100.00
61697;BME280;47610;52.252;20.922;2023-02-01T09:35:33;99034.27;;;3.23;100.00
61697;BME280;47610;52.252;20.922;2023-02-01T09:40:45;99023.51;;;3.32;100.00
61697;BME280;47610;52.252;20.922;2023-02-01T09:45:59;99015.65;;;3.54;100.00
61697;BME280;47610;52.252;20.922;2023-02-01T09:51:20;99001.89;;;4.35;100.00
61697;BME280;47610;52.252;20.922;2023-02-01T09:56:33;99011.55;;;5.40;100.00
61697;BME280;47610;52.252;20.922;2023-02-01T10:01:39;99019.81;;;6.63;100.00
61697;BME280;47610;52.252;20.922;2023-02-01T10:06:44;99022.21;;;6.65;100.00
61697;BME280;47610;52.252;20.922;2023-02-01T10:12:11;99029.27;;;6.22;100.00
61697;BME280;47610;52.252;20.922;2023-02-01T10:17:31;99029.48;;;5.70;100.00
61697;BME280;47610;52.252;20.922;2023-02-01T10:22:45;99026.04;;;5.35;100.00
61697;BME280;47610;52.252;20.922;2023-02-01T10:27:52;99020.91;;;5.01;100.00
61697;BME280;47610;52.252;20.922;2023-02-01T10:32:57;99021.67;;;4.79;100.00
61697;BME280;47610;52.252;20.922;2023-02-01T10:38:12;99019.61;;;4.57;100.00
61697;BME280;47610;52.252;20.922;2023-02-01T10:43:21;99026.10;;;4.55;100.00
61697;BME280;47610;52.252;20.922;2023-02-01T10:48:26;99023.20;;;4.54;100.00
61697;BME280;47610;52.252;20.922;2023-02-01T10:53:36;99021.70;;;4.64;100.00
61697;BME280;47610;52.252;20.922;2023-02-01T10:58:48;99017.41;;;4.87;100.00
61697;BME280;47610;52.252;20.922;2023-02-01T11:04:01;99028.66;;;5.31;100.00
61697;BME280;47610;52.252;20.922;2023-02-01T11:09:11;99022.90;;;5.76;100.00
61697;BME280;47610;52.252;20.922;2023-02-01T11:19:40;99022.36;;;6.05;100.00
61697;BME280;47610;52.252;20.922;2023-02-01T11:24:48;99014.30;;;5.99;100.00
61697;BME280;47610;52.252;20.922;2023-02-01T11:29:55;99008.63;;;5.88;100.00
61697;BME280;47610;52.252;20.922;2023-02-01T11:35:13;99008.80;;;5.68;100.00
61697;BME280;47610;52.252;20.922;2023-02-01T11:40:34;99006.71;;;5.43;100.00
61697;BME280;47610;52.252;20.922;2023-02-01T11:45:41;99000.34;;;5.21;100.00
61697;BME280;47610;52.252;20.922;2023-02-01T11:50:51;99002.91;;;5.14;100.00
61697;BME280;47610;52.252;20.922;2023-02-01T11:56:13;98996.66;;;5.39;100.00
61697;BME280;47610;52.252;20.922;2023-02-01T12:01:40;98984.89;;;5.62;100.00
61697;BME280;47610;52.252;20.922;2023-02-01T12:06:56;98990.07;;;5.62;100.00
61697;BME280;47610;52.252;20.922;2023-02-01T12:12:16;98987.73;;;5.57;100.00
61697;BME280;47610;52.252;20.922;2023-02-01T12:17:46;98986.34;;;5.49;100.00
61697;BME280;47610;52.252;20.922;2023-02-01T12:23:10;98982.75;;;5.38;100.00
61697;BME280;47610;52.252;20.922;2023-02-01T12:28:33;98974.83;;;5.43;100.00
61697;BME280;47610;52.252;20.922;2023-02-01T12:33:52;98978.13;;;5.55;100.00
61697;BME280;47610;52.252;20.922;2023-02-01T12:39:12;98981.05;;;5.48;100.00
61697;BME280;47610;52.252;20.922;2023-02-01T12:44:32;98974.02;;;5.39;100.00
61697;BME280;47610;52.252;20.922;2023-02-01T12:49:46;98981.30;;;5.24;100.00
61697;BME280;47610;52.252;20.922;2023-02-01T12:54:58;98981.64;;;5.13;100.00
61697;BME280;47610;52.252;20.922;2023-02-01T13:00:20;98980.16;;;5.20;100.00
61697;BME280;47610;52.252;20.922;2023-02-01T13:05:36;98979.07;;;5.17;100.00
61697;BME280;47610;52.252;20.922;2023-02-01T13:10:51;98981.48;;;5.15;100.00
61697;BME280;47610;52.252;20.922;2023-02-01T13:16:02;98981.64;;;5.02;100.00
61697;BME280;47610;52.252;20.922;2023-02-01T13:21:16;98987.43;;;4.89;100.00
61697;BME280;47610;52.252;20.922;2023-02-01T13:26:21;98984.59;;;4.79;100.00
61697;BME280;47610;52.252;20.922;2023-02-01T13:39:54;98996.02;;;4.60;100.00
61697;BME280;47610;52.252;20.922;2023-02-01T13:45:12;99004.68;;;4.56;100.00
61697;BME280;47610;52.252;20.922;2023-02-01T13:50:27;99005.36;;;4.46;100.00
61697;BME280;47610;52.252;20.922;2023-02-01T13:55:35;99011.23;;;4.38;100.00
61697;BME280;47610;52.252;20.922;2023-02-01T14:00:43;99003.80;;;4.29;100.00
61697;BME280;47610;52.252;20.922;2023-02-01T14:11:40;98999.45;;;4.20;100.00
61697;BME280;47610;52.252;20.922;2023-02-01T14:22:34;98995.90;;;4.31;100.00
61697;BME280;47610;52.252;20.922;2023-02-01T14:27:37;98996.34;;;4.37;100.00
61697;BME280;47610;52.252;20.922;2023-02-01T14:32:42;99001.84;;;4.33;100.00
61697;BME280;47610;52.252;20.922;2023-02-01T14:37:47;99004.71;;;4.27;100.00
61697;BME280;47610;52.252;20.922;2023-02-01T14:42:55;98999.63;;;4.21;100.00
61697;BME280;47610;52.252;20.922;2023-02-01T14:53:52;99003.73;;;4.13;100.00
61697;BME280;47610;52.252;20.922;2023-02-01T14:59:01;98999.48;;;4.09;100.00
61697;BME280;47610;52.252;20.922;2023-02-01T15:04:11;99001.00;;;4.07;100.00
61697;BME280;47610;52.252;20.922;2023-02-01T15:09:18;99004.36;;;4.04;100.00
61697;BME280;47610;52.252;20.922;2023-02-01T15:14:22;99004.52;;;4.01;100.00
61697;BME280;47610;52.252;20.922;2023-02-01T15:19:29;99010.88;;;3.99;100.00
61697;BME280;47610;52.252;20.922;2023-02-01T15:24:33;99020.75;;;3.93;100.00
61697;BME280;47610;52.252;20.922;2023-02-01T15:29:39;99015.46;;;3.89;100.00
61697;BME280;47610;52.252;20.922;2023-02-01T15:34:51;99022.03;;;3.85;100.00
61697;BME280;47610;52.252;20.922;2023-02-01T15:40:23;99022.17;;;3.81;100.00
61697;BME280;47610;52.252;20.922;2023-02-01T15:45:31;99022.87;;;3.79;100.00
61697;BME280;47610;52.252;20.922;2023-02-01T15:59:22;99017.91;;;3.78;100.00
61697;BME280;47610;52.252;20.922;2023-02-01T16:04:29;99019.27;;;3.68;100.00
61697;BME280;47610;52.252;20.922;2023-02-01T16:09:48;99008.27;;;3.46;100.00
61697;BME280;47610;52.252;20.922;2023-02-01T16:14:54;99014.39;;;3.36;100.00
61697;BME280;47610;52.252;20.922;2023-02-01T16:19:57;99009.91;;;3.32;100.00
61697;BME280;47610;52.252;20.922;2023-02-01T16:25:01;99014.64;;;3.32;100.00
61697;BME280;47610;52.252;20.922;2023-02-01T16:30:10;99013.55;;;3.32;100.00
61697;BME280;47610;52.252;20.922;2023-02-01T16:35:20;99011.97;;;3.31;100.00
61697;BME280;47610;52.252;20.922;2023-02-01T16:40:25;99015.08;;;3.25;100.00
61697;BME280;47610;52.252;20.922;2023-02-01T16:45:28;99018.64;;;3.21;100.00
61697;BME280;47610;52.252;20.922;2023-02-01T16:50:34;99016.02;;;3.18;100.00
61697;BME280;47610;52.252;20.922;2023-02-01T16:55:37;99013.09;;;3.12;100.00
61697;BME280;47610;52.252;20.922;2023-02-01T17:00:41;99012.49;;;3.13;100.00
61697;BME280;47610;52.252;20.922;2023-02-01T17:05:51;99018.48;;;3.08;100.00
61697;BME280;47610;52.252;20.922;2023-02-01T17:10:56;99020.73;;;3.11;100.00
61697;BME280;47610;52.252;20.922;2023-02-01T17:16:02;99023.06;;;3.15;100.00
61697;BME280;47610;52.252;20.922;2023-02-01T17:21:12;99026.73;;;3.19;100.00
61697;BME280;47610;52.252;20.922;2023-02-01T17:26:16;99021.83;;;3.22;100.00
61697;BME280;47610;52.252;20.922;2023-02-01T17:31:20;99014.96;;;3.23;100.00
61697;BME280;47610;52.252;20.922;2023-02-01T17:36:25;99024.30;;;3.27;100.00
61697;BME280;47610;52.252;20.922;2023-02-01T17:41:29;99025.38;;;3.26;100.00
61697;BME280;47610;52.252;20.922;2023-02-01T17:46:33;99022.90;;;3.24;100.00
61697;BME280;47610;52.252;20.922;2023-02-01T17:51:36;99027.79;;;3.21;100.00
61697;BME280;47610;52.252;20.922;2023-02-01T17:56:40;99026.64;;;3.21;100.00
61697;BME280;47610;52.252;20.922;2023-02-01T18:01:46;99028.19;;;3.18;100.00
61697;BME280;47610;52.252;20.922;2023-02-01T18:06:48;99024.79;;;3.14;100.00
61697;BME280;47610;52.252;20.922;2023-02-01T18:19:30;99028.76;;;3.01;100.00
61697;BME280;47610;52.252;20.922;2023-02-01T18:24:33;99035.78;;;2.96;100.00
61697;BME280;47610;52.252;20.922;2023-02-01T18:29:37;99044.65;;;2.91;100.00
61697;BME280;47610;52.252;20.922;2023-02-01T18:34:42;99037.31;;;2.85;100.00
61697;BME280;47610;52.252;20.922;2023-02-01T18:39:47;99034.19;;;2.80;100.00
61697;BME280;47610;52.252;20.922;2023-02-01T18:44:50;99027.64;;;2.79;100.00
61697;BME280;47610;52.252;20.922;2023-02-01T18:49:54;99028.48;;;2.76;100.00
61697;BME280;47610;52.252;20.922;2023-02-01T18:54:58;99024.64;;;2.77;100.00
61697;BME280;47610;52.252;20.922;2023-02-01T19:00:06;99025.65;;;2.75;100.00
61697;BME280;47610;52.252;20.922;2023-02-01T19:05:14;99021.65;;;2.71;100.00
61697;BME280;47610;52.252;20.922;2023-02-01T19:10:21;99016.53;;;2.69;100.00
61697;BME280;47610;52.252;20.922;2023-02-01T19:15:26;99014.95;;;2.70;100.00
61697;BME280;47610;52.252;20.922;2023-02-01T19:20:28;99014.34;;;2.74;100.00
61697;BME280;47610;52.252;20.922;2023-02-01T19:25:32;99012.48;;;2.78;100.00
61697;BME280;47610;52.252;20.922;2023-02-01T19:30:36;99013.20;;;2.79;100.00
61697;BME280;47610;52.252;20.922;2023-02-01T19:35:40;99006.55;;;2.79;100.00
61697;BME280;47610;52.252;20.922;2023-02-01T19:40:44;99012.66;;;2.79;100.00
61697;BME280;47610;52.252;20.922;2023-02-01T19:45:51;99017.27;;;2.80;100.00
61697;BME280;47610;52.252;20.922;2023-02-01T19:50:53;99014.67;;;2.81;100.00
61697;BME280;47610;52.252;20.922;2023-02-01T19:55:58;99015.25;;;2.78;100.00
61697;BME280;47610;52.252;20.922;2023-02-01T20:01:04;99013.46;;;2.74;100.00
61697;BME280;47610;52.252;20.922;2023-02-01T20:06:08;99017.86;;;2.78;100.00
61697;BME280;47610;52.252;20.922;2023-02-01T20:11:11;99016.73;;;2.81;100.00
61697;BME280;47610;52.252;20.922;2023-02-01T20:16:15;99014.88;;;2.80;100.00
61697;BME280;47610;52.252;20.922;2023-02-01T20:21:18;99007.75;;;2.73;100.00
61697;BME280;47610;52.252;20.922;2023-02-01T20:26:22;99000.80;;;2.61;100.00
61697;BME280;47610;52.252;20.922;2023-02-01T20:38:51;98986.61;;;2.13;100.00
61697;BME280;47610;52.252;20.922;2023-02-01T20:43:57;98989.40;;;1.95;100.00
61697;BME280;47610;52.252;20.922;2023-02-01T20:49:00;98996.98;;;1.82;100.00
61697;BME280;47610;52.252;20.922;2023-02-01T20:54:05;98997.62;;;1.75;100.00
61697;BME280;47610;52.252;20.922;2023-02-01T20:59:10;98998.30;;;1.83;100.00
61697;BME280;47610;52.252;20.922;2023-02-01T21:04:16;98994.23;;;1.97;100.00
61697;BME280;47610;52.252;20.922;2023-02-01T21:09:19;98986.84;;;2.09;100.00
61697;BME280;47610;52.252;20.922;2023-02-01T21:14:22;98983.51;;;2.12;100.00
61697;BME280;47610;52.252;20.922;2023-02-01T21:19:28;98986.31;;;2.15;100.00
61697;BME280;47610;52.252;20.922;2023-02-01T21:29:34;98989.48;;;2.37;100.00
61697;BME280;47610;52.252;20.922;2023-02-01T21:34:38;98994.52;;;2.47;100.00
61697;BME280;47610;52.252;20.922;2023-02-01T21:39:42;98993.84;;;2.50;100.00
61697;BME280;47610;52.252;20.922;2023-02-01T21:44:46;98996.31;;;2.53;100.00
61697;BME280;47610;52.252;20.922;2023-02-01T21:49:51;98996.73;;;2.56;100.00
61697;BME280;47610;52.252;20.922;2023-02-01T21:54:55;98994.05;;;2.62;100.00
61697;BME280;47610;52.252;20.922;2023-02-01T21:59:59;98983.92;;;2.69;100.00
61697;BME280;47610;52.252;20.922;2023-02-01T22:05:02;98973.78;;;2.73;100.00
61697;BME280;47610;52.252;20.922;2023-02-01T22:10:12;98978.11;;;2.76;100.00
61697;BME280;47610;52.252;20.922;2023-02-01T22:15:16;98976.43;;;2.77;100.00
61697;BME280;47610;52.252;20.922;2023-02-01T22:20:20;98971.65;;;2.76;100.00
61697;BME280;47610;52.252;20.922;2023-02-01T22:25:24;98983.20;;;2.82;100.00
61697;BME280;47610;52.252;20.922;2023-02-01T22:30:27;98978.80;;;2.87;100.00
61697;BME280;47610;52.252;20.922;2023-02-01T22:35:30;98980.88;;;2.89;100.00
61697;BME280;47610;52.252;20.922;2023-02-01T22:40:34;98972.19;;;2.92;100.00
61697;BME280;47610;52.252;20.922;2023-02-01T22:45:38;98971.27;;;2.93;100.00
61697;BME280;47610;52.252;20.922;2023-02-01T22:58:09;98963.77;;;2.91;100.00
61697;BME280;47610;52.252;20.922;2023-02-01T23:03:13;98963.95;;;2.88;100.00
61697;BME280;47610;52.252;20.922;2023-02-01T23:08:17;98966.86;;;2.84;100.00
61697;BME280;47610;52.252;20.922;2023-02-01T23:13:21;98967.52;;;2.71;100.00
61697;BME280;47610;52.252;20.922;2023-02-01T23:18:25;98964.31;;;2.58;100.00
61697;BME280;47610;52.252;20.922;2023-02-01T23:23:33;98968.27;;;2.51;100.00
61697;BME280;47610;52.252;20.922;2023-02-01T23:28:39;98970.20;;;2.44;100.00
61697;BME280;47610;52.252;20.922;2023-02-01T23:33:44;98968.67;;;2.43;100.00
61697;BME280;47610;52.252;20.922;2023-02-01T23:38:49;98963.78;;;2.42;100.00
61697;BME280;47610;52.252;20.922;2023-02-01T23:43:55;98960.69;;;2.36;100.00
61697;BME280;47610;52.252;20.922;2023-02-01T23:49:01;98963.98;;;2.40;100.00
61697;BME280;47610;52.252;20.922;2023-02-01T23:54:07;98954.07;;;2.44;100.00
61697;BME280;47610;52.252;20.922;2023-02-01T23:59:16;98954.84;;;2.44;100.00
